createdAt,value
2023-05-05T00:00:19.377Z,12.91
2023-05-05T00:01:19.325Z,12.89
2023-05-05T00:02:19.450Z,12.84
2023-05-05T00:03:19.383Z,12.84
2023-05-05T00:04:19.340Z,12.81
2023-05-05T00:05:19.304Z,12.84
2023-05-05T00:06:19.295Z,12.85
2023-05-05T00:07:19.249Z,12.87
2023-05-05T00:08:19.271Z,12.88
2023-05-05T00:09:19.252Z,12.80
2023-05-05T00:10:19.257Z,12.80
2023-05-05T00:11:19.216Z,12.74
2023-05-05T00:12:19.208Z,12.76
2023-05-05T00:13:19.185Z,12.71
2023-05-05T00:14:19.223Z,12.74
2023-05-05T00:15:19.169Z,12.76
2023-05-05T00:16:19.181Z,12.79
2023-05-05T00:17:19.161Z,12.79
2023-05-05T00:18:19.185Z,12.80
2023-05-05T00:19:19.150Z,12.84
2023-05-05T00:20:19.135Z,12.85
2023-05-05T00:21:19.116Z,12.85
2023-05-05T00:22:19.110Z,12.81
2023-05-05T00:23:19.116Z,12.70
2023-05-05T00:24:19.092Z,12.56
2023-05-05T00:25:19.052Z,12.54
2023-05-05T00:26:19.080Z,12.58
2023-05-05T00:27:19.044Z,12.62
2023-05-05T00:28:19.077Z,12.62
2023-05-05T00:29:19.026Z,12.62
2023-05-05T00:30:19.027Z,12.59
2023-05-05T00:31:19.089Z,12.51
2023-05-05T00:32:19.038Z,12.41
2023-05-05T00:34:33.906Z,12.31
2023-05-05T00:35:34.945Z,12.31
2023-05-05T00:36:34.913Z,12.36
2023-05-05T00:37:34.905Z,12.36
2023-05-05T00:38:34.866Z,12.38
2023-05-05T00:39:34.877Z,12.38
2023-05-05T00:40:34.855Z,12.41
2023-05-05T00:41:34.889Z,12.37
2023-05-05T00:42:34.836Z,12.30
2023-05-05T00:43:34.848Z,12.25
2023-05-05T00:44:34.799Z,12.19
2023-05-05T00:45:34.826Z,12.12
2023-05-05T00:46:34.860Z,12.05
2023-05-05T00:47:34.817Z,11.96
2023-05-05T00:48:34.785Z,11.87
2023-05-05T00:49:34.858Z,11.88
2023-05-05T00:50:34.744Z,11.90
2023-05-05T00:51:34.749Z,11.93
2023-05-05T00:52:34.734Z,11.87
2023-05-05T00:53:34.761Z,11.81
2023-05-05T00:54:34.733Z,11.75
2023-05-05T00:55:34.719Z,11.67
2023-05-05T00:56:34.677Z,11.63
2023-05-05T00:57:34.699Z,11.63
2023-05-05T00:58:34.683Z,11.66
2023-05-05T00:59:34.686Z,11.66
2023-05-05T01:00:34.646Z,11.70
2023-05-05T01:01:34.760Z,11.74
2023-05-05T01:02:34.683Z,11.69
2023-05-05T01:03:34.797Z,11.66
2023-05-05T01:04:34.605Z,11.62
2023-05-05T01:05:34.611Z,11.64
2023-05-05T01:06:34.581Z,11.62
2023-05-05T01:07:34.587Z,11.63
2023-05-05T01:08:34.594Z,11.59
2023-05-05T01:09:34.556Z,11.62
2023-05-05T01:10:34.555Z,11.66
2023-05-05T01:11:34.579Z,11.67
2023-05-05T01:12:34.556Z,11.64
2023-05-05T01:13:34.543Z,11.60
2023-05-05T01:14:34.510Z,11.57
2023-05-05T01:15:34.515Z,11.63
2023-05-05T01:16:34.598Z,11.66
2023-05-05T01:17:34.485Z,11.70
2023-05-05T01:18:34.477Z,11.70
2023-05-05T01:19:34.452Z,11.69
2023-05-05T01:20:34.457Z,11.72
2023-05-05T01:21:34.413Z,11.70
2023-05-05T01:22:34.451Z,11.75
2023-05-05T01:23:34.396Z,11.67
2023-05-05T01:24:34.427Z,11.63
2023-05-05T01:25:34.384Z,11.56
2023-05-05T01:26:34.396Z,11.51
2023-05-05T01:27:34.489Z,11.49
2023-05-05T01:28:34.368Z,11.45
2023-05-05T01:29:34.351Z,11.36
2023-05-05T01:30:34.346Z,11.30
2023-05-05T01:31:34.328Z,11.23
2023-05-05T01:32:34.403Z,11.20
2023-05-05T01:33:34.294Z,11.26
2023-05-05T01:34:34.314Z,11.31
2023-05-05T01:35:34.315Z,11.33
2023-05-05T01:36:34.290Z,11.30
2023-05-05T01:37:34.259Z,11.30
2023-05-05T01:38:34.284Z,11.27
2023-05-05T01:39:34.235Z,11.24
2023-05-05T01:40:34.240Z,11.24
2023-05-05T01:41:34.202Z,11.26
2023-05-05T01:42:34.228Z,11.24
2023-05-05T01:43:34.339Z,11.24
2023-05-05T01:44:34.198Z,11.21
2023-05-05T01:45:34.181Z,11.23
2023-05-05T01:46:34.177Z,11.21
2023-05-05T01:47:34.144Z,11.24
2023-05-05T01:48:34.151Z,11.24
2023-05-05T01:49:34.146Z,11.21
2023-05-05T01:50:34.166Z,11.26
2023-05-05T01:51:34.109Z,11.26
2023-05-05T01:52:34.130Z,11.21
2023-05-05T01:53:34.090Z,11.17
2023-05-05T01:54:34.091Z,11.09
2023-05-05T01:55:34.086Z,11.06
2023-05-05T01:56:34.070Z,11.06
2023-05-05T01:57:34.030Z,11.01
2023-05-05T01:58:34.080Z,10.95
2023-05-05T01:59:34.017Z,10.98
2023-05-05T02:00:34.034Z,10.99
2023-05-05T02:01:34.028Z,10.93
2023-05-05T02:02:34.087Z,10.88
2023-05-05T02:03:34.064Z,10.84
2023-05-05T02:04:34.024Z,10.81
2023-05-05T02:05:33.953Z,10.78
2023-05-05T02:06:33.969Z,10.80
2023-05-05T02:07:33.942Z,10.76
2023-05-05T02:08:33.999Z,10.78
2023-05-05T02:09:33.901Z,10.78
2023-05-05T02:10:33.919Z,10.80
2023-05-05T02:11:33.894Z,10.78
2023-05-05T02:12:33.913Z,10.75
2023-05-05T02:13:34.258Z,10.75
2023-05-05T02:14:33.872Z,10.70
2023-05-05T02:15:33.895Z,10.70
2023-05-05T02:16:34.508Z,10.63
2023-05-05T02:17:33.853Z,10.60
2023-05-05T02:18:33.848Z,10.52
2023-05-05T02:19:33.835Z,10.49
2023-05-05T02:20:33.849Z,10.44
2023-05-05T02:21:33.821Z,10.46
2023-05-05T02:22:33.807Z,10.49
2023-05-05T02:23:33.771Z,10.54
2023-05-05T02:24:33.819Z,10.54
2023-05-05T02:25:33.758Z,10.54
2023-05-05T02:26:33.810Z,10.51
2023-05-05T02:27:33.729Z,10.46
2023-05-05T02:28:33.742Z,10.43
2023-05-05T02:29:33.705Z,10.36
2023-05-05T02:30:33.722Z,10.36
2023-05-05T02:31:33.710Z,10.39
2023-05-05T02:32:34.390Z,10.44
2023-05-05T02:33:33.660Z,10.49
2023-05-05T02:34:33.691Z,10.52
2023-05-05T02:35:33.648Z,10.54
2023-05-05T02:36:33.656Z,10.54
2023-05-05T02:37:34.241Z,10.52
2023-05-05T02:38:33.642Z,10.49
2023-05-05T02:39:33.616Z,10.42
2023-05-05T02:40:33.612Z,10.42
2023-05-05T02:41:33.601Z,10.43
2023-05-05T02:42:34.268Z,10.44
2023-05-05T02:43:33.561Z,10.44
2023-05-05T02:44:33.580Z,10.39
2023-05-05T02:45:33.589Z,10.35
2023-05-05T02:46:33.697Z,10.34
2023-05-05T02:47:33.602Z,10.36
2023-05-05T02:48:33.530Z,10.46
2023-05-05T02:49:33.531Z,10.51
2023-05-05T02:50:33.511Z,10.57
2023-05-05T02:51:33.472Z,10.62
2023-05-05T02:52:34.118Z,10.66
2023-05-05T02:53:33.455Z,10.72
2023-05-05T02:54:33.470Z,10.76
2023-05-05T02:55:33.473Z,10.76
2023-05-05T02:56:33.465Z,10.68
2023-05-05T02:57:33.410Z,10.57
2023-05-05T02:58:33.425Z,10.57
2023-05-05T02:59:33.412Z,10.55
2023-05-05T03:00:33.437Z,10.57
2023-05-05T03:01:33.462Z,10.54
2023-05-05T03:02:33.476Z,10.51
2023-05-05T03:03:33.420Z,10.44
2023-05-05T03:04:33.391Z,10.49
2023-05-05T03:05:33.378Z,10.52
2023-05-05T03:06:33.375Z,10.58
2023-05-05T03:07:33.311Z,10.62
2023-05-05T03:08:33.408Z,10.63
2023-05-05T03:09:33.295Z,10.65
2023-05-05T03:10:33.335Z,10.66
2023-05-05T03:11:33.273Z,10.69
2023-05-05T03:12:33.311Z,10.72
2023-05-05T03:13:33.256Z,10.73
2023-05-05T03:14:33.612Z,10.70
2023-05-05T03:15:33.246Z,10.66
2023-05-05T03:16:33.285Z,10.68
2023-05-05T03:17:33.212Z,10.69
2023-05-05T03:18:33.214Z,10.60
2023-05-05T03:19:33.217Z,10.52
2023-05-05T03:20:33.192Z,10.47
2023-05-05T03:21:33.170Z,10.44
2023-05-05T03:22:33.176Z,10.47
2023-05-05T03:23:33.147Z,10.54
2023-05-05T03:24:33.133Z,10.62
2023-05-05T03:25:33.078Z,10.63
2023-05-05T03:26:33.082Z,10.60
2023-05-05T03:27:33.045Z,10.54
2023-05-05T03:28:33.088Z,10.52
2023-05-05T03:29:33.032Z,10.51
2023-05-05T03:30:33.071Z,10.51
2023-05-05T03:31:33.018Z,10.44
2023-05-05T03:32:33.064Z,10.35
2023-05-05T03:33:33.031Z,10.29
2023-05-05T03:34:33.035Z,10.24
2023-05-05T03:35:32.964Z,10.17
2023-05-05T03:36:32.995Z,10.14
2023-05-05T03:37:32.954Z,10.16
2023-05-05T03:38:32.952Z,10.18
2023-05-05T03:39:32.933Z,10.22
2023-05-05T03:40:43.406Z,10.20
2023-05-05T03:41:32.933Z,10.09
2023-05-05T03:42:32.919Z,10.01
2023-05-05T03:43:32.906Z,9.92
2023-05-05T03:44:32.900Z,9.80
2023-05-05T03:45:32.918Z,9.73
2023-05-05T03:46:32.906Z,9.68
2023-05-05T03:47:32.873Z,9.63
2023-05-05T03:48:32.867Z,9.58
2023-05-05T03:49:32.862Z,9.55
2023-05-05T03:50:32.882Z,9.53
2023-05-05T03:51:32.812Z,9.48
2023-05-05T03:52:32.859Z,9.45
2023-05-05T03:53:32.781Z,9.44
2023-05-05T03:54:32.801Z,9.45
2023-05-05T03:55:32.755Z,9.42
2023-05-05T03:56:32.766Z,9.44
2023-05-05T03:57:32.738Z,9.44
2023-05-05T03:58:32.797Z,9.52
2023-05-05T03:59:32.723Z,9.59
2023-05-05T04:00:32.724Z,9.62
2023-05-05T04:01:32.690Z,9.60
2023-05-05T04:02:32.807Z,9.58
2023-05-05T04:03:32.745Z,9.56
2023-05-05T04:04:32.723Z,9.62
2023-05-05T04:05:32.652Z,9.67
2023-05-05T04:06:32.696Z,9.68
2023-05-05T04:07:32.627Z,9.65
2023-05-05T04:08:32.643Z,9.62
2023-05-05T04:09:32.619Z,9.65
2023-05-05T04:10:32.638Z,9.70
2023-05-05T04:11:32.638Z,9.78
2023-05-05T04:12:32.666Z,9.86
2023-05-05T04:13:32.581Z,9.89
2023-05-05T04:14:32.597Z,9.95
2023-05-05T04:15:32.569Z,9.98
2023-05-05T04:16:32.636Z,9.99
2023-05-05T04:17:32.607Z,9.98
2023-05-05T04:18:32.590Z,9.91
2023-05-05T04:19:32.545Z,9.83
2023-05-05T04:20:32.515Z,9.83
2023-05-05T04:21:32.575Z,9.83
2023-05-05T04:22:32.624Z,9.81
2023-05-05T04:23:32.551Z,9.81
2023-05-05T04:24:32.607Z,9.81
2023-05-05T04:25:32.455Z,9.80
2023-05-05T04:26:32.457Z,9.81
2023-05-05T04:27:32.426Z,9.81
2023-05-05T04:28:32.469Z,9.80
2023-05-05T04:29:32.402Z,9.80
2023-05-05T04:30:32.414Z,9.85
2023-05-05T04:31:32.437Z,9.92
2023-05-05T04:32:32.420Z,9.91
2023-05-05T04:33:33.879Z,9.96
2023-05-05T04:34:32.379Z,9.99
2023-05-05T04:35:32.350Z,10.09
2023-05-05T04:36:32.372Z,10.14
2023-05-05T04:37:32.347Z,10.17
2023-05-05T04:38:32.436Z,10.22
2023-05-05T04:39:32.364Z,10.28
2023-05-05T04:40:32.323Z,10.29
2023-05-05T04:41:32.276Z,10.32
2023-05-05T04:42:32.296Z,10.36
2023-05-05T04:43:32.264Z,10.42
2023-05-05T04:44:32.275Z,10.44
2023-05-05T04:45:32.275Z,10.47
2023-05-05T04:46:32.274Z,10.51
2023-05-05T04:47:32.296Z,10.46
2023-05-05T04:48:32.291Z,10.39
2023-05-05T04:49:32.218Z,10.42
2023-05-05T04:50:32.224Z,10.44
2023-05-05T04:51:32.208Z,10.49
2023-05-05T04:52:32.211Z,10.57
2023-05-05T04:53:32.205Z,10.60
2023-05-05T04:54:32.173Z,10.63
2023-05-05T04:55:32.210Z,10.65
2023-05-05T04:56:32.158Z,10.68
2023-05-05T04:57:32.144Z,10.68
2023-05-05T04:58:32.165Z,10.72
2023-05-05T04:59:32.094Z,10.73
2023-05-05T05:00:32.132Z,10.78
2023-05-05T05:01:32.130Z,10.81
2023-05-05T05:02:32.177Z,10.81
2023-05-05T05:03:32.384Z,10.86
2023-05-05T05:04:32.077Z,10.88
2023-05-05T05:05:32.072Z,10.88
2023-05-05T05:06:32.052Z,10.90
2023-05-05T05:07:32.015Z,10.91
2023-05-05T05:08:32.042Z,10.98
2023-05-05T05:09:31.992Z,10.98
2023-05-05T05:10:32.049Z,10.87
2023-05-05T05:11:31.992Z,10.80
2023-05-05T05:12:32.037Z,10.75
2023-05-05T05:13:31.955Z,10.58
2023-05-05T05:14:31.997Z,10.44
2023-05-05T05:15:31.944Z,10.43
2023-05-05T05:16:31.971Z,10.49
2023-05-05T05:17:31.926Z,10.51
2023-05-05T05:18:31.928Z,10.60
2023-05-05T05:19:31.915Z,10.62
2023-05-05T05:20:31.906Z,10.70
2023-05-05T05:21:31.884Z,10.75
2023-05-05T05:22:31.927Z,10.81
2023-05-05T05:23:31.872Z,10.78
2023-05-05T05:24:31.876Z,10.78
2023-05-05T05:25:31.842Z,10.76
2023-05-05T05:26:31.842Z,10.91
2023-05-05T05:27:31.813Z,11.03
2023-05-05T05:28:31.846Z,11.16
2023-05-05T05:29:31.788Z,11.19
2023-05-05T05:30:31.779Z,11.08
2023-05-05T05:31:31.810Z,11.12
2023-05-05T05:32:31.788Z,11.23
2023-05-05T05:33:31.813Z,11.28
2023-05-05T05:34:31.755Z,11.21
2023-05-05T05:35:31.744Z,11.11
2023-05-05T05:36:31.736Z,10.93
2023-05-05T05:37:31.747Z,10.80
2023-05-05T05:38:31.717Z,10.78
2023-05-05T05:39:31.705Z,10.76
2023-05-05T05:40:31.688Z,10.72
2023-05-05T05:41:31.696Z,10.70
2023-05-05T05:42:31.665Z,10.80
2023-05-05T05:43:31.679Z,10.80
2023-05-05T05:44:31.633Z,10.84
2023-05-05T05:45:31.649Z,10.94
2023-05-05T05:46:31.672Z,11.03
2023-05-05T05:47:31.668Z,11.12
2023-05-05T05:48:31.598Z,11.17
2023-05-05T05:49:31.607Z,11.23
2023-05-05T05:50:31.602Z,11.30
2023-05-05T05:51:31.581Z,11.36
2023-05-05T05:52:31.559Z,11.36
2023-05-05T05:53:31.558Z,11.41
2023-05-05T05:54:31.545Z,11.42
2023-05-05T05:55:31.548Z,11.48
2023-05-05T05:56:31.551Z,11.44
2023-05-05T05:57:31.525Z,11.48
2023-05-05T05:58:31.475Z,11.53
2023-05-05T05:59:31.516Z,11.56
2023-05-05T06:00:31.466Z,11.63
2023-05-05T06:01:31.517Z,11.62
2023-05-05T06:02:31.522Z,11.57
2023-05-05T06:03:31.510Z,11.53
2023-05-05T06:04:31.451Z,11.57
2023-05-05T06:05:31.455Z,11.64
2023-05-05T06:06:31.394Z,11.70
2023-05-05T06:07:31.432Z,11.79
2023-05-05T06:08:31.664Z,11.88
2023-05-05T06:09:31.397Z,11.98
2023-05-05T06:10:31.472Z,12.07
2023-05-05T06:11:31.364Z,12.25
2023-05-05T06:12:31.340Z,12.40
2023-05-05T06:13:31.371Z,12.54
2023-05-05T06:14:31.322Z,12.46
2023-05-05T06:15:31.320Z,12.48
2023-05-05T06:16:31.373Z,12.61
2023-05-05T06:17:31.301Z,12.73
2023-05-05T06:18:31.294Z,12.74
2023-05-05T06:19:31.298Z,12.77
2023-05-05T06:20:31.252Z,12.87
2023-05-05T06:21:31.271Z,12.85
2023-05-05T06:22:31.228Z,12.85
2023-05-05T06:23:31.276Z,12.92
2023-05-05T06:24:31.202Z,12.91
2023-05-05T06:25:31.220Z,12.94
2023-05-05T06:26:31.185Z,12.96
2023-05-05T06:27:31.193Z,12.91
2023-05-05T06:28:31.189Z,12.85
2023-05-05T06:29:31.180Z,12.89
2023-05-05T06:30:31.150Z,12.96
2023-05-05T06:31:31.204Z,13.03
2023-05-05T06:32:31.178Z,13.04
2023-05-05T06:33:31.185Z,12.98
2023-05-05T06:34:31.128Z,12.98
2023-05-05T06:35:31.117Z,13.03
2023-05-05T06:36:31.139Z,13.03
2023-05-05T06:37:31.096Z,13.01
2023-05-05T06:38:31.159Z,13.09
2023-05-05T06:39:31.122Z,13.22
2023-05-05T06:40:31.062Z,13.28
2023-05-05T06:41:31.099Z,13.29
2023-05-05T06:42:31.031Z,13.32
2023-05-05T06:43:31.044Z,13.25
2023-05-05T06:44:31.013Z,13.14
2023-05-05T06:45:31.025Z,13.12
2023-05-05T06:46:31.037Z,13.19
2023-05-05T06:47:31.071Z,13.24
2023-05-05T06:48:30.964Z,13.24
2023-05-05T06:49:30.989Z,13.29
2023-05-05T06:50:30.955Z,13.39
2023-05-05T06:51:30.973Z,13.43
2023-05-05T06:52:30.931Z,13.48
2023-05-05T06:53:30.934Z,13.55
2023-05-05T06:54:30.902Z,13.61
2023-05-05T06:55:30.980Z,13.66
2023-05-05T06:56:30.882Z,13.72
2023-05-05T06:57:30.974Z,13.84
2023-05-05T06:58:30.903Z,13.94
2023-05-05T06:59:30.915Z,13.99
2023-05-05T07:00:30.873Z,14.06
2023-05-05T07:01:30.953Z,14.12
2023-05-05T07:02:30.835Z,14.12
2023-05-05T07:03:30.896Z,14.16
2023-05-05T07:04:30.795Z,14.20
2023-05-05T07:05:30.812Z,14.26
2023-05-05T07:06:30.770Z,14.26
2023-05-05T07:07:30.796Z,14.24
2023-05-05T07:08:30.790Z,14.29
2023-05-05T07:09:30.816Z,14.30
2023-05-05T07:10:30.746Z,14.35
2023-05-05T07:11:30.779Z,14.41
2023-05-05T07:12:30.776Z,14.38
2023-05-05T07:13:30.751Z,14.41
2023-05-05T07:14:30.733Z,14.49
2023-05-05T07:15:30.714Z,14.61
2023-05-05T07:16:30.743Z,14.67
2023-05-05T07:17:30.696Z,14.67
2023-05-05T07:18:30.692Z,14.75
2023-05-05T07:19:30.675Z,14.87
2023-05-05T07:20:30.657Z,14.95
2023-05-05T07:21:30.646Z,15.03
2023-05-05T07:22:30.614Z,15.05
2023-05-05T07:23:30.664Z,15.12
2023-05-05T07:24:30.596Z,15.25
2023-05-05T07:25:30.595Z,15.30
2023-05-05T07:26:30.580Z,15.33
2023-05-05T07:27:30.594Z,15.31
2023-05-05T07:28:30.598Z,15.30
2023-05-05T07:29:30.565Z,15.28
2023-05-05T07:30:30.527Z,15.19
2023-05-05T07:31:30.589Z,15.12
2023-05-05T07:32:30.553Z,15.07
2023-05-05T07:33:30.521Z,15.11
2023-05-05T07:34:30.480Z,15.16
2023-05-05T07:35:30.543Z,15.19
2023-05-05T07:36:30.478Z,15.25
2023-05-05T07:37:30.491Z,15.34
2023-05-05T07:38:30.463Z,15.35
2023-05-05T07:39:30.453Z,15.43
2023-05-05T07:40:30.447Z,15.49
2023-05-05T07:41:36.629Z,15.66
2023-05-05T07:42:30.399Z,15.80
2023-05-05T07:43:30.420Z,15.89
2023-05-05T07:44:30.382Z,15.99
2023-05-05T07:45:30.425Z,16.10
2023-05-05T07:46:30.456Z,16.13
2023-05-05T07:47:30.461Z,16.22
2023-05-05T07:48:30.351Z,16.17
2023-05-05T07:49:30.354Z,16.26
2023-05-05T07:50:30.313Z,16.22
2023-05-05T07:51:31.159Z,16.23
2023-05-05T07:52:44.307Z,16.16
2023-05-05T07:53:30.313Z,16.18
2023-05-05T07:54:30.288Z,16.32
2023-05-05T07:55:30.285Z,16.41
2023-05-05T07:56:30.277Z,16.48
2023-05-05T07:57:30.277Z,16.47
2023-05-05T07:58:30.244Z,16.51
2023-05-05T07:59:30.252Z,16.51
2023-05-05T08:00:30.249Z,16.52
2023-05-05T08:01:30.220Z,16.65
2023-05-05T08:02:30.286Z,16.69
2023-05-05T08:03:30.369Z,16.73
2023-05-05T08:04:30.190Z,16.78
2023-05-05T08:05:30.195Z,16.84
2023-05-05T08:06:30.159Z,16.75
2023-05-05T08:07:30.167Z,16.75
2023-05-05T08:08:30.130Z,16.81
2023-05-05T08:09:30.159Z,16.85
2023-05-05T08:10:30.113Z,16.87
2023-05-05T08:11:30.122Z,16.80
2023-05-05T08:12:30.131Z,16.75
2023-05-05T08:13:30.134Z,16.70
2023-05-05T08:14:30.098Z,16.72
2023-05-05T08:15:30.080Z,16.72
2023-05-05T08:16:30.154Z,16.69
2023-05-05T08:17:30.119Z,16.69
2023-05-05T08:18:30.049Z,16.67
2023-05-05T08:19:30.077Z,16.67
2023-05-05T08:20:30.025Z,16.70
2023-05-05T08:21:30.035Z,16.70
2023-05-05T08:22:29.999Z,16.73
2023-05-05T08:23:29.994Z,16.72
2023-05-05T08:24:29.994Z,16.75
2023-05-05T08:25:29.970Z,16.73
2023-05-05T08:26:29.949Z,16.75
2023-05-05T08:27:29.962Z,16.73
2023-05-05T08:28:29.960Z,16.72
2023-05-05T08:29:29.948Z,16.69
2023-05-05T08:30:29.914Z,16.67
2023-05-05T08:31:29.994Z,16.70
2023-05-05T08:32:30.032Z,16.66
2023-05-05T08:33:29.937Z,16.72
2023-05-05T08:34:29.858Z,16.72
2023-05-05T08:35:29.885Z,16.69
2023-05-05T08:36:29.888Z,16.73
2023-05-05T08:37:29.870Z,16.80
2023-05-05T08:38:29.819Z,16.81
2023-05-05T08:39:29.848Z,16.80
2023-05-05T08:40:29.829Z,16.80
2023-05-05T08:41:29.814Z,16.82
2023-05-05T08:42:37.825Z,16.81
2023-05-05T08:43:29.790Z,16.84
2023-05-05T08:44:29.765Z,16.81
2023-05-05T08:45:29.775Z,16.84
2023-05-05T08:46:29.780Z,16.84
2023-05-05T08:47:29.785Z,16.81
2023-05-05T08:48:29.712Z,16.85
2023-05-05T08:49:29.728Z,16.88
2023-05-05T08:50:29.707Z,16.85
2023-05-05T08:51:29.713Z,16.87
2023-05-05T08:52:29.688Z,16.88
2023-05-05T08:53:29.705Z,16.88
2023-05-05T08:54:29.655Z,16.87
2023-05-05T08:55:29.675Z,16.92
2023-05-05T08:56:29.654Z,16.95
2023-05-05T08:57:29.641Z,16.99
2023-05-05T08:58:29.613Z,17.00
2023-05-05T08:59:29.640Z,17.00
2023-05-05T09:00:29.610Z,16.99
2023-05-05T09:01:29.665Z,17.05
2023-05-05T09:02:29.648Z,17.07
2023-05-05T09:03:29.600Z,17.14
2023-05-05T09:04:29.545Z,17.18
2023-05-05T09:05:29.590Z,17.24
2023-05-05T09:06:29.528Z,17.22
2023-05-05T09:07:29.537Z,17.21
2023-05-05T09:08:29.526Z,17.25
2023-05-05T09:09:29.535Z,17.27
2023-05-05T09:10:29.506Z,17.33
2023-05-05T09:11:29.530Z,17.38
2023-05-05T09:12:29.466Z,17.43
2023-05-05T09:13:29.486Z,17.43
2023-05-05T09:14:29.499Z,17.45
2023-05-05T09:15:29.493Z,17.46
2023-05-05T09:16:29.456Z,17.51
2023-05-05T09:17:29.512Z,17.54
2023-05-05T09:18:29.391Z,17.57
2023-05-05T09:19:29.456Z,17.60
2023-05-05T09:20:29.377Z,17.62
2023-05-05T09:21:29.427Z,17.54
2023-05-05T09:22:29.357Z,17.60
2023-05-05T09:23:29.391Z,17.60
2023-05-05T09:24:29.365Z,17.60
2023-05-05T09:25:29.356Z,17.70
2023-05-05T09:26:29.327Z,17.79
2023-05-05T09:27:29.335Z,17.86
2023-05-05T09:28:29.360Z,17.94
2023-05-05T09:29:29.304Z,18.10
2023-05-05T09:30:29.288Z,18.16
2023-05-05T09:31:29.372Z,18.13
2023-05-05T09:32:30.578Z,18.35
2023-05-05T09:33:29.270Z,18.36
2023-05-05T09:34:29.261Z,18.21
2023-05-05T09:35:29.243Z,18.26
2023-05-05T09:36:29.221Z,18.28
2023-05-05T09:37:29.226Z,18.51
2023-05-05T09:38:29.193Z,18.56
2023-05-05T09:39:29.228Z,18.75
2023-05-05T09:42:48.469Z,19.16
2023-05-05T09:43:49.435Z,19.32
2023-05-05T09:44:49.386Z,19.38
2023-05-05T09:45:49.396Z,19.47
2023-05-05T09:46:49.396Z,19.53
2023-05-05T09:47:49.514Z,19.61
2023-05-05T09:48:49.342Z,19.70
2023-05-05T09:49:49.355Z,19.80
2023-05-05T09:50:49.333Z,19.80
2023-05-05T09:51:49.350Z,19.86
2023-05-05T09:52:49.339Z,20.01
2023-05-05T09:53:55.587Z,20.12
2023-05-05T09:54:49.287Z,20.12
2023-05-05T09:55:49.288Z,20.04
2023-05-05T09:56:49.271Z,19.85
2023-05-05T09:57:49.264Z,19.70
2023-05-05T09:58:49.274Z,19.78
2023-05-05T09:59:49.244Z,20.00
2023-05-05T10:00:49.497Z,20.04
2023-05-05T10:01:49.294Z,20.15
2023-05-05T10:02:49.256Z,20.20
2023-05-05T10:03:49.218Z,20.31
2023-05-05T10:04:49.259Z,20.16
2023-05-05T10:05:49.209Z,20.25
2023-05-05T10:06:49.161Z,20.20
2023-05-05T10:07:49.180Z,20.10
2023-05-05T10:08:49.176Z,20.17
2023-05-05T10:09:49.144Z,20.08
2023-05-05T10:10:49.106Z,20.16
2023-05-05T10:11:49.118Z,20.31
2023-05-05T10:12:49.120Z,20.10
2023-05-05T10:13:49.339Z,20.12
2023-05-05T10:14:49.093Z,20.20
2023-05-05T10:15:49.124Z,20.40
2023-05-05T10:16:49.100Z,20.57
2023-05-05T10:18:49.018Z,20.50
2023-05-05T10:19:49.034Z,20.61
2023-05-05T10:20:49.030Z,20.61
2023-05-05T10:21:49.035Z,20.50
2023-05-05T10:22:48.992Z,20.54
2023-05-05T10:23:49.114Z,20.68
2023-05-05T10:24:48.952Z,20.46
2023-05-05T10:25:49.224Z,20.26
2023-05-05T10:26:48.946Z,20.17
2023-05-05T10:27:48.986Z,20.13
2023-05-05T10:28:48.943Z,20.26
2023-05-05T10:29:48.966Z,20.41
2023-05-05T10:30:48.881Z,20.54
2023-05-05T10:31:48.917Z,20.60
2023-05-05T10:32:59.371Z,20.41
2023-05-05T10:33:48.997Z,20.37
2023-05-05T10:34:48.863Z,20.17
2023-05-05T10:35:48.886Z,20.25
2023-05-05T10:36:48.895Z,20.44
2023-05-05T10:37:48.856Z,20.35
2023-05-05T10:38:48.809Z,20.42
2023-05-05T10:39:48.904Z,20.53
2023-05-05T10:40:48.957Z,20.79
2023-05-05T10:41:48.849Z,21.01
2023-05-05T10:42:48.765Z,21.16
2023-05-05T10:43:48.782Z,21.19
2023-05-05T10:44:48.759Z,21.03
2023-05-05T10:45:49.665Z,20.90
2023-05-05T10:46:48.758Z,20.94
2023-05-05T10:47:48.781Z,21.03
2023-05-05T10:48:48.762Z,20.78
2023-05-05T10:49:48.724Z,20.75
2023-05-05T10:50:48.699Z,20.71
2023-05-05T10:51:48.738Z,20.71
2023-05-05T10:52:48.687Z,20.66
2023-05-05T10:53:48.757Z,20.66
2023-05-05T10:54:48.642Z,20.68
2023-05-05T10:55:48.659Z,20.68
2023-05-05T10:56:48.670Z,20.82
2023-05-05T10:57:48.637Z,20.64
2023-05-05T10:58:59.217Z,20.58
2023-05-05T10:59:48.650Z,20.61
2023-05-05T11:00:48.610Z,20.68
2023-05-05T11:01:48.594Z,20.75
2023-05-05T11:02:48.619Z,20.68
2023-05-05T11:03:48.698Z,20.79
2023-05-05T11:04:48.685Z,20.79
2023-05-05T11:05:48.553Z,20.73
2023-05-05T11:06:48.546Z,20.75
2023-05-05T11:07:49.340Z,20.73
2023-05-05T11:08:48.512Z,20.75
2023-05-05T11:09:48.510Z,20.78
2023-05-05T11:10:48.510Z,20.72
2023-05-05T11:11:48.553Z,20.75
2023-05-05T11:12:48.512Z,20.72
2023-05-05T11:13:48.478Z,20.82
2023-05-05T11:14:48.436Z,20.85
2023-05-05T11:15:48.468Z,20.96
2023-05-05T11:16:48.482Z,21.11
2023-05-05T11:17:48.564Z,21.19
2023-05-05T11:18:48.434Z,21.24
2023-05-05T11:19:48.563Z,21.34
2023-05-05T11:20:48.406Z,21.08
2023-05-05T11:21:48.419Z,20.76
2023-05-05T11:22:48.372Z,20.73
2023-05-05T11:23:48.374Z,20.82
2023-05-05T11:24:48.383Z,20.81
2023-05-05T11:25:48.355Z,20.91
2023-05-05T11:26:48.341Z,21.11
2023-05-05T11:27:48.328Z,21.13
2023-05-05T11:28:48.292Z,21.08
2023-05-05T11:29:50.258Z,21.09
2023-05-05T11:30:48.365Z,21.12
2023-05-05T11:31:48.284Z,21.15
2023-05-05T11:32:48.275Z,20.82
2023-05-05T11:33:48.301Z,20.66
2023-05-05T11:34:48.238Z,20.53
2023-05-05T11:35:48.244Z,20.58
2023-05-05T11:36:48.212Z,20.63
2023-05-05T11:37:48.220Z,20.61
2023-05-05T11:38:48.212Z,20.71
2023-05-05T11:39:48.197Z,20.51
2023-05-05T11:40:48.172Z,20.26
2023-05-05T11:41:48.181Z,20.23
2023-05-05T11:42:48.144Z,20.26
2023-05-05T11:43:48.199Z,20.31
2023-05-05T11:44:48.165Z,20.41
2023-05-05T11:45:48.218Z,20.40
2023-05-05T11:46:48.103Z,20.27
2023-05-05T11:47:48.140Z,20.27
2023-05-05T11:48:48.093Z,20.35
2023-05-05T11:49:48.114Z,20.48
2023-05-05T11:50:48.065Z,20.53
2023-05-05T11:51:48.080Z,20.53
2023-05-05T11:52:48.054Z,20.61
2023-05-05T11:53:48.073Z,20.61
2023-05-05T11:54:48.121Z,20.68
2023-05-05T11:55:48.045Z,20.58
2023-05-05T11:56:47.998Z,20.46
2023-05-05T11:57:48.008Z,20.31
2023-05-05T11:58:47.985Z,20.15
2023-05-05T11:59:49.511Z,20.05
2023-05-05T12:00:47.964Z,20.05
2023-05-05T12:01:47.987Z,20.04
2023-05-05T12:02:48.111Z,20.02
2023-05-05T12:03:48.086Z,20.08
2023-05-05T12:04:47.949Z,20.05
2023-05-05T12:05:47.956Z,20.07
2023-05-05T12:06:47.925Z,20.07
2023-05-05T12:07:47.920Z,20.02
2023-05-05T12:08:47.862Z,20.04
2023-05-05T12:09:47.882Z,20.00
2023-05-05T12:10:47.952Z,19.97
2023-05-05T12:11:47.869Z,19.85
2023-05-05T12:12:48.508Z,19.85
2023-05-05T12:13:47.849Z,19.80
2023-05-05T12:14:47.843Z,19.83
2023-05-05T12:15:47.817Z,19.86
2023-05-05T12:16:47.817Z,19.76
2023-05-05T12:17:47.857Z,19.58
2023-05-05T12:18:47.785Z,19.25
2023-05-05T12:19:47.781Z,18.82
2023-05-05T12:20:47.750Z,18.38
2023-05-05T12:21:47.758Z,18.07
2023-05-05T12:22:47.792Z,17.87
2023-05-05T12:23:47.733Z,17.71
2023-05-05T12:24:47.710Z,17.65
2023-05-05T12:25:47.710Z,17.57
2023-05-05T12:26:47.683Z,17.42
2023-05-05T12:27:47.683Z,17.40
2023-05-05T12:28:47.696Z,17.47
2023-05-05T12:29:47.670Z,17.46
2023-05-05T12:30:47.680Z,17.45
2023-05-05T12:31:47.653Z,17.46
2023-05-05T12:32:47.677Z,17.51
2023-05-05T12:33:54.527Z,17.53
2023-05-05T12:34:47.586Z,17.55
2023-05-05T12:35:47.603Z,17.51
2023-05-05T12:36:47.566Z,17.40
2023-05-05T12:37:47.621Z,17.39
2023-05-05T12:38:47.578Z,17.38
2023-05-05T12:39:47.569Z,17.38
2023-05-05T12:40:47.710Z,17.39
2023-05-05T12:41:47.548Z,17.38
2023-05-05T12:42:47.600Z,17.38
2023-05-05T12:43:47.557Z,17.39
2023-05-05T12:44:47.498Z,17.40
2023-05-05T12:45:47.562Z,17.45
2023-05-05T12:46:47.519Z,17.47
2023-05-05T12:47:47.564Z,17.46
2023-05-05T12:48:48.467Z,17.49
2023-05-05T12:49:47.463Z,17.46
2023-05-05T12:50:47.423Z,17.46
2023-05-05T12:51:47.443Z,17.53
2023-05-05T12:52:47.446Z,17.62
2023-05-05T12:53:47.422Z,17.63
2023-05-05T12:54:47.382Z,17.63
2023-05-05T12:55:47.403Z,17.58
2023-05-05T12:56:47.393Z,17.58
2023-05-05T12:57:47.374Z,17.60
2023-05-05T12:58:47.330Z,17.65